Terminal Aerodrome Forecast
Issued by NWS Albuquerque, NM

Home | Current Version | Previous Version | Text Only | Print | Product List | Glossary On
Versions: 1 2 3 4 5 6 7 8 9 10 11 12 13 14 15 16
647
FTUS45 KABQ 270539
TAFABQ
TAF
KABQ 270539Z 2706/2806 20007KT P6SM BKN100
     FM271500 23016G26KT P6SM BKN060
     FM271800 28027G37KT P6SM BKN060
     FM280000 31027G37KT P6SM SCT100
     FM280200 32012G22KT P6SM SCT100
     FM280500 32010KT P6SM SCT100=

USA.gov is the U.S. government's official web portal to all federal, state and local government web resources and services.